Princeton, Nebraska
Current Conditions -  °F | °C
As of 11:54 PM on Sunday 19 Oct 2014 (Local Time) from KLNK Reporting Station
Clear Clear  
Wind Chill: 54°   Ceiling: Unl
Heat Index: 54°   Visibility: 10mi
Dew Point: 47°   Wind: 3mph
Humidity: 77%   Direction: 200°SSW
Pressure: 30"   Gusts: NA
Location:  40.6351°N, 96.7488°W
Report Text: KLNK 200454Z AUTO 20003KT 10SM CLR 12/08 A3000 RMK AO2 SLP155 T01220083
Loading
Personal Weather Stations






























Interactive Weather Map
Tropical Storm Tracking
New forecast layout! Learn more

10-Day Weather Forecast

Advertisements
Track Severe Weather on mobile